Time;durP1;ratioP1;P1;durP2;ratioP2;P2;SDS_P1;SDS_P2;PMS_P1;PMS_P2;Temp;Humidity;BMP_temperature;BMP_pressure;BME280_temperature;BME280_humidity;BME280_pressure;Samples;Min_cycle;Max_cycle;Signal;HPM_P1;HPM_P2
2022/11/13 00:01:25;;;;;;;;;;;12.30;74.40;;;;;;5053098;28;19949;-86
2022/11/13 00:03:51;;;;;;;;;;;12.30;73.00;;;;;;5053050;28;20280;-86
2022/11/13 00:06:17;;;;;;;;;;;12.40;73.30;;;;;;5053074;28;19939;-86
2022/11/13 00:08:43;;;;;;;;;;;12.30;74.00;;;;;;5053005;28;19943;-86
2022/11/13 00:11:17;;;;;;;;;;;12.40;72.50;;;;;;5053001;28;19987;-86
2022/11/13 00:13:43;;;;;;;;;;;12.30;73.30;;;;;;5052929;28;19981;-86
2022/11/13 00:16:10;;;;;;;;;;;12.30;73.40;;;;;;5035055;28;19989;-86
2022/11/13 00:18:36;;;;;;;;;;;12.40;71.90;;;;;;5052892;28;20449;-86
2022/11/13 00:21:10;;;;;;;;;;;12.30;71.60;;;;;;5052862;28;20026;-86
2022/11/13 00:23:36;;;;;;;;;;;12.30;71.10;;;;;;5052869;28;19989;-86
2022/11/13 00:26:05;;;;;;;;;;;12.40;70.80;;;;;;5053058;28;20394;-86
2022/11/13 00:28:31;;;;;;;;;;;12.30;70.90;;;;;;5052783;28;20307;-86
2022/11/13 00:30:57;;;;;;;;;;;12.40;70.80;;;;;;5051786;28;19948;-86
2022/11/13 00:33:22;;;;;;;;;;;12.30;71.40;;;;;;5052719;28;19961;-86
2022/11/13 00:35:48;;;;;;;;;;;12.10;71.70;;;;;;5052731;28;20372;-86
2022/11/13 00:38:13;;;;;;;;;;;12.00;72.30;;;;;;5052726;28;20369;-86
2022/11/13 00:40:39;;;;;;;;;;;12.00;72.40;;;;;;5052731;28;20026;-86
2022/11/13 00:43:04;;;;;;;;;;;12.00;72.70;;;;;;5052680;28;20405;-86
2022/11/13 00:45:30;;;;;;;;;;;12.00;72.50;;;;;;5052626;28;19945;-86
2022/11/13 00:47:55;;;;;;;;;;;12.10;72.90;;;;;;5052609;28;20404;-86
2022/11/13 00:50:21;;;;;;;;;;;12.20;73.00;;;;;;5052482;28;19974;-86
2022/11/13 00:52:47;;;;;;;;;;;12.30;72.60;;;;;;5052348;28;20378;-86
2022/11/13 00:55:12;;;;;;;;;;;12.30;72.10;;;;;;5052802;28;19938;-86
2022/11/13 00:57:38;;;;;;;;;;;12.20;72.10;;;;;;5052590;28;19947;-86
2022/11/13 01:00:03;;;;;;;;;;;12.10;72.00;;;;;;5052537;28;19995;-86
2022/11/13 01:02:29;;;;;;;;;;;12.00;72.40;;;;;;5052515;28;19998;-86
2022/11/13 01:04:54;;;;;;;;;;;11.80;73.10;;;;;;5052469;28;19945;-86
2022/11/13 01:07:20;;;;;;;;;;;11.70;73.60;;;;;;5055203;28;20321;-86
2022/11/13 01:09:48;;;;;;;;;;;11.70;74.00;;;;;;5056181;28;20402;-86
2022/11/13 01:12:14;;;;;;;;;;;11.60;73.70;;;;;;5056027;28;19963;-86
2022/11/13 01:14:39;;;;;;;;;;;11.60;73.60;;;;;;5056084;28;20400;-86
2022/11/13 01:17:05;;;;;;;;;;;11.60;73.30;;;;;;5056059;28;19947;-86
2022/11/13 01:19:30;;;;;;;;;;;11.60;73.00;;;;;;5056006;28;19954;-86
2022/11/13 01:21:56;;;;;;;;;;;11.50;73.60;;;;;;5055972;28;19941;-86
2022/11/13 01:24:21;;;;;;;;;;;11.50;73.40;;;;;;5038097;28;19943;-86
2022/11/13 01:26:47;;;;;;;;;;;11.50;73.20;;;;;;5055932;28;19936;-86
2022/11/13 01:29:12;;;;;;;;;;;11.60;72.60;;;;;;5055844;28;19984;-86
2022/11/13 01:31:38;;;;;;;;;;;11.60;72.20;;;;;;5055824;28;19939;-86
2022/11/13 01:34:03;;;;;;;;;;;11.70;71.20;;;;;;5055701;28;20420;-86
2022/11/13 01:36:29;;;;;;;;;;;11.70;70.90;;;;;;5055759;28;19981;-86
2022/11/13 01:38:55;;;;;;;;;;;11.70;70.70;;;;;;5055689;28;20029;-86
2022/11/13 01:41:20;;;;;;;;;;;11.70;70.90;;;;;;5055607;28;19950;-86
2022/11/13 01:43:46;;;;;;;;;;;11.60;70.60;;;;;;5055617;28;19942;-86
2022/11/13 01:46:16;;;;;;;;;;;11.60;70.90;;;;;;5037707;28;19946;-86
2022/11/13 01:48:44;;;;;;;;;;;11.50;71.40;;;;;;5055497;28;20035;-86
2022/11/13 01:51:16;;;;;;;;;;;11.40;71.80;;;;;;5055185;28;20510;-86
2022/11/13 01:53:43;;;;;;;;;;;11.40;71.80;;;;;;5055499;28;20004;-86
2022/11/13 01:56:09;;;;;;;;;;;11.30;72.00;;;;;;5055365;28;20023;-86
2022/11/13 01:58:34;;;;;;;;;;;11.30;71.90;;;;;;5055534;28;20449;-86
2022/11/13 02:01:00;;;;;;;;;;;11.20;72.10;;;;;;5055231;28;19942;-86
2022/11/13 02:03:25;;;;;;;;;;;11.20;71.90;;;;;;5055223;28;19971;-86
2022/11/13 02:05:52;;;;;;;;;;;11.10;72.30;;;;;;5055206;28;19981;-86
2022/11/13 02:08:17;;;;;;;;;;;11.10;72.50;;;;;;5055129;28;19962;-86
2022/11/13 02:10:43;;;;;;;;;;;11.00;73.10;;;;;;5053806;28;20420;-86
2022/11/13 02:13:09;;;;;;;;;;;11.00;72.20;;;;;;5055024;28;20009;-86
2022/11/13 02:15:34;;;;;;;;;;;10.90;72.30;;;;;;5054987;28;19939;-86
2022/11/13 02:18:00;;;;;;;;;;;10.90;72.40;;;;;;5054398;28;19989;-86
2022/11/13 02:20:31;;;;;;;;;;;10.90;71.80;;;;;;5054935;28;19938;-86
2022/11/13 02:23:15;;;;;;;;;;;10.90;71.80;;;;;;5054873;28;19943;-86
2022/11/13 02:25:42;;;;;;;;;;;10.90;70.60;;;;;;5054781;28;19943;-86
2022/11/13 02:28:07;;;;;;;;;;;10.90;70.50;;;;;;5054735;28;19969;-86
2022/11/13 02:30:33;;;;;;;;;;;10.80;71.30;;;;;;5054730;28;19982;-86
2022/11/13 02:32:59;;;;;;;;;;;10.70;70.90;;;;;;5054596;28;19966;-86
2022/11/13 02:35:35;;;;;;;;;;;10.70;71.10;;;;;;5054615;28;19938;-86
2022/11/13 02:38:01;;;;;;;;;;;10.70;71.00;;;;;;5054534;28;19983;-86
2022/11/13 02:40:27;;;;;;;;;;;10.60;71.60;;;;;;5054554;28;19940;-86
2022/11/13 02:42:53;;;;;;;;;;;10.60;72.00;;;;;;5054491;28;19946;-86
2022/11/13 02:45:18;;;;;;;;;;;10.60;71.20;;;;;;5054455;28;19981;-86
2022/11/13 02:47:44;;;;;;;;;;;10.70;71.30;;;;;;5054353;28;19940;-86
2022/11/13 02:50:10;;;;;;;;;;;10.70;71.10;;;;;;5054063;28;20399;-86
2022/11/13 02:52:35;;;;;;;;;;;10.80;70.90;;;;;;5054112;28;20334;-86
2022/11/13 02:55:01;;;;;;;;;;;10.80;70.90;;;;;;5054028;28;19954;-86
2022/11/13 02:57:27;;;;;;;;;;;10.70;71.00;;;;;;5054234;28;19972;-86
2022/11/13 02:59:52;;;;;;;;;;;10.60;70.90;;;;;;5054190;28;19983;-86
2022/11/13 03:02:18;;;;;;;;;;;10.60;71.20;;;;;;5054154;28;19940;-86
2022/11/13 03:04:45;;;;;;;;;;;10.50;71.60;;;;;;5054026;28;20345;-86
2022/11/13 03:07:11;;;;;;;;;;;10.40;72.00;;;;;;5054048;28;20491;-86
2022/11/13 03:09:36;;;;;;;;;;;10.40;72.30;;;;;;5054243;28;19964;-86
2022/11/13 03:12:02;;;;;;;;;;;10.30;72.40;;;;;;5053932;28;19940;-86
2022/11/13 03:14:27;;;;;;;;;;;10.30;72.50;;;;;;5053758;28;19967;-86
2022/11/13 03:16:53;;;;;;;;;;;10.20;73.60;;;;;;5053831;28;19936;-86
2022/11/13 03:19:18;;;;;;;;;;;10.10;73.50;;;;;;5053832;28;19940;-86
2022/11/13 03:21:44;;;;;;;;;;;10.00;73.70;;;;;;5053783;28;20017;-87
2022/11/13 03:24:09;;;;;;;;;;;10.00;74.20;;;;;;5053684;28;20008;-86
2022/11/13 03:26:35;;;;;;;;;;;9.90;74.60;;;;;;5053651;28;20437;-86
2022/11/13 03:29:00;;;;;;;;;;;9.90;75.10;;;;;;5053513;28;20049;-86
2022/11/13 03:31:26;;;;;;;;;;;9.90;75.20;;;;;;5052896;28;20019;-86
2022/11/13 03:33:52;;;;;;;;;;;9.90;74.90;;;;;;5053432;28;20008;-86
2022/11/13 03:36:18;;;;;;;;;;;9.90;74.40;;;;;;5053509;28;20398;-86
2022/11/13 03:38:43;;;;;;;;;;;9.80;74.90;;;;;;5053731;28;19952;-86
2022/11/13 03:41:09;;;;;;;;;;;9.80;74.90;;;;;;5053688;28;20400;-86
2022/11/13 03:43:35;;;;;;;;;;;9.70;74.90;;;;;;5053348;28;20314;-87
2022/11/13 03:46:01;;;;;;;;;;;9.70;75.20;;;;;;5053327;28;19941;-86
2022/11/13 03:48:26;;;;;;;;;;;9.70;75.60;;;;;;5053318;28;19959;-86
2022/11/13 03:50:53;;;;;;;;;;;9.70;76.00;;;;;;5052982;28;19977;-86
2022/11/13 03:53:19;;;;;;;;;;;9.70;76.20;;;;;;5053036;28;20000;-86
2022/11/13 03:55:44;;;;;;;;;;;9.60;76.10;;;;;;5053227;28;20337;-86
2022/11/13 03:58:10;;;;;;;;;;;9.70;76.60;;;;;;5053181;28;20070;-86
2022/11/13 04:00:36;;;;;;;;;;;9.60;76.30;;;;;;5053168;28;20029;-86
2022/11/13 04:03:02;;;;;;;;;;;9.60;76.20;;;;;;5053089;28;19954;-86
2022/11/13 04:05:27;;;;;;;;;;;9.60;76.50;;;;;;5053058;28;20434;-86
2022/11/13 04:07:53;;;;;;;;;;;9.60;76.60;;;;;;5053281;28;20360;-86
2022/11/13 04:10:18;;;;;;;;;;;9.60;76.60;;;;;;5053035;28;19941;-86
2022/11/13 04:12:44;;;;;;;;;;;9.50;76.60;;;;;;5052907;28;20354;-86
2022/11/13 04:15:10;;;;;;;;;;;9.40;77.50;;;;;;5052965;28;20313;-86
2022/11/13 04:17:35;;;;;;;;;;;9.40;77.50;;;;;;5035071;28;19948;-86
2022/11/13 04:20:01;;;;;;;;;;;9.40;77.60;;;;;;5052954;28;19939;-86
2022/11/13 04:22:26;;;;;;;;;;;9.30;77.60;;;;;;5053152;28;19947;-86
2022/11/13 04:24:52;;;;;;;;;;;9.30;77.70;;;;;;5052636;28;19948;-86
2022/11/13 04:27:17;;;;;;;;;;;9.30;78.30;;;;;;5052852;28;19937;-86
2022/11/13 04:29:43;;;;;;;;;;;9.20;78.30;;;;;;5052833;28;19941;-87
2022/11/13 04:32:09;;;;;;;;;;;9.30;78.30;;;;;;5052826;28;19943;-86
2022/11/13 04:34:34;;;;;;;;;;;9.40;77.70;;;;;;5052750;28;19963;-86
2022/11/13 04:37:00;;;;;;;;;;;9.40;77.30;;;;;;5053066;28;20309;-86
2022/11/13 04:39:25;;;;;;;;;;;9.40;77.10;;;;;;5052985;28;19949;-86
2022/11/13 04:44:35;;;;;;;;;;;9.20;77.40;;;;;;5056803;28;20088;-86
2022/11/13 04:47:00;;;;;;;;;;;9.20;77.80;;;;;;5056748;28;19987;-86
2022/11/13 04:49:26;;;;;;;;;;;9.20;78.00;;;;;;5056907;28;19943;-86
2022/11/13 04:51:51;;;;;;;;;;;9.20;77.80;;;;;;5056307;28;20031;-86
2022/11/13 04:54:17;;;;;;;;;;;9.20;77.80;;;;;;5056430;28;19958;-86
2022/11/13 04:56:42;;;;;;;;;;;9.20;78.00;;;;;;5056531;28;20121;-86
2022/11/13 04:59:08;;;;;;;;;;;9.20;77.60;;;;;;5056460;28;19951;-86
2022/11/13 05:01:34;;;;;;;;;;;9.20;77.40;;;;;;5056449;28;19940;-86
2022/11/13 05:04:00;;;;;;;;;;;9.20;77.20;;;;;;5056355;28;19939;-86
2022/11/13 05:06:26;;;;;;;;;;;9.20;77.60;;;;;;5038382;28;20085;-86
2022/11/13 05:08:51;;;;;;;;;;;9.20;77.80;;;;;;5056228;28;19945;-86
2022/11/13 05:11:17;;;;;;;;;;;9.20;78.50;;;;;;5056275;28;19936;-86
2022/11/13 05:13:42;;;;;;;;;;;9.20;78.30;;;;;;5038198;28;19968;-86
2022/11/13 05:16:09;;;;;;;;;;;9.20;78.00;;;;;;5056151;28;20008;-86
2022/11/13 05:18:36;;;;;;;;;;;9.20;77.90;;;;;;5056081;28;19935;-86
2022/11/13 05:21:02;;;;;;;;;;;9.20;77.90;;;;;;5056087;28;19941;-86
2022/11/13 05:23:27;;;;;;;;;;;9.20;77.90;;;;;;5055998;28;20298;-86
2022/11/13 05:25:59;;;;;;;;;;;9.20;78.00;;;;;;5055924;28;19945;-86
2022/11/13 05:28:25;;;;;;;;;;;9.10;78.20;;;;;;5055897;28;19980;-86
2022/11/13 05:30:50;;;;;;;;;;;9.10;78.40;;;;;;5055880;28;20419;-86
2022/11/13 05:33:16;;;;;;;;;;;9.00;78.70;;;;;;5055739;28;19962;-86
2022/11/13 05:35:41;;;;;;;;;;;9.00;78.80;;;;;;5055765;28;19938;-86
2022/11/13 05:38:07;;;;;;;;;;;9.00;78.50;;;;;;5055765;28;19986;-86
2022/11/13 05:40:32;;;;;;;;;;;8.80;77.90;;;;;;5055696;28;20002;-86
2022/11/13 05:42:58;;;;;;;;;;;8.60;78.20;;;;;;5055892;28;20375;-86
2022/11/13 05:45:23;;;;;;;;;;;8.60;78.60;;;;;;5055558;28;20454;-86
2022/11/13 05:47:49;;;;;;;;;;;8.50;79.10;;;;;;5055830;28;20034;-86
2022/11/13 05:50:15;;;;;;;;;;;8.40;79.60;;;;;;5055321;28;19978;-86
2022/11/13 05:52:41;;;;;;;;;;;8.40;80.20;;;;;;5054363;28;19994;-86
2022/11/13 05:55:06;;;;;;;;;;;8.40;80.30;;;;;;5055311;28;19981;-86
2022/11/13 05:57:32;;;;;;;;;;;8.40;80.30;;;;;;5055313;28;19967;-86
2022/11/13 05:59:57;;;;;;;;;;;8.40;80.30;;;;;;5055312;28;19974;-86
2022/11/13 06:02:23;;;;;;;;;;;8.40;80.60;;;;;;5055277;28;20027;-86
2022/11/13 06:04:49;;;;;;;;;;;8.40;80.50;;;;;;5055181;28;20449;-86
2022/11/13 06:07:14;;;;;;;;;;;8.40;80.80;;;;;;5055396;28;19996;-86
2022/11/13 06:09:40;;;;;;;;;;;8.40;80.90;;;;;;5055125;28;20330;-86
2022/11/13 06:12:05;;;;;;;;;;;8.40;81.20;;;;;;5055073;28;19952;-86
2022/11/13 06:14:31;;;;;;;;;;;8.50;81.60;;;;;;5055191;28;20332;-86
2022/11/13 06:16:56;;;;;;;;;;;8.60;81.30;;;;;;5055017;28;20442;-86
2022/11/13 06:19:22;;;;;;;;;;;8.70;81.00;;;;;;5054957;28;19979;-86
2022/11/13 06:21:47;;;;;;;;;;;8.80;80.50;;;;;;5054917;28;19941;-85
2022/11/13 06:24:13;;;;;;;;;;;8.90;80.50;;;;;;5054809;28;19940;-86
2022/11/13 06:26:38;;;;;;;;;;;8.90;80.60;;;;;;5036975;28;19942;-86
2022/11/13 06:29:05;;;;;;;;;;;8.90;80.60;;;;;;5054729;28;19948;-86
2022/11/13 06:31:32;;;;;;;;;;;8.90;80.60;;;;;;5054729;28;19949;-86
2022/11/13 06:33:59;;;;;;;;;;;8.90;80.60;;;;;;5054628;28;19960;-86
2022/11/13 06:36:26;;;;;;;;;;;8.90;80.70;;;;;;5054667;28;20384;-86
2022/11/13 06:38:51;;;;;;;;;;;8.90;80.20;;;;;;5054505;28;19952;-86
2022/11/13 06:41:18;;;;;;;;;;;8.90;79.80;;;;;;5054544;28;19956;-86
2022/11/13 06:43:44;;;;;;;;;;;8.90;79.90;;;;;;5054472;28;19940;-86
2022/11/13 06:46:16;;;;;;;;;;;8.90;79.90;;;;;;5054493;28;19943;-86
2022/11/13 06:48:42;;;;;;;;;;;9.00;79.70;;;;;;5054368;28;19943;-86
2022/11/13 06:51:10;;;;;;;;;;;9.00;79.60;;;;;;5054130;28;19982;-86
2022/11/13 06:53:36;;;;;;;;;;;9.10;79.50;;;;;;5054108;28;19960;-86
2022/11/13 06:56:03;;;;;;;;;;;9.10;79.50;;;;;;5054259;28;19940;-86
2022/11/13 06:58:29;;;;;;;;;;;9.20;79.50;;;;;;5054242;28;19939;-86
2022/11/13 07:00:54;;;;;;;;;;;9.20;79.50;;;;;;5054121;28;20309;-86
2022/11/13 07:03:24;;;;;;;;;;;9.30;79.70;;;;;;5054110;28;20281;-86
2022/11/13 07:05:49;;;;;;;;;;;9.40;80.10;;;;;;5054006;28;20003;-86
2022/11/13 07:08:15;;;;;;;;;;;9.40;80.10;;;;;;5054067;28;19941;-86
2022/11/13 07:10:41;;;;;;;;;;;9.40;80.10;;;;;;5053972;28;20093;-86
2022/11/13 07:13:07;;;;;;;;;;;9.50;79.90;;;;;;5053870;28;19961;-86
2022/11/13 07:15:36;;;;;;;;;;;9.70;79.40;;;;;;5053867;28;20036;-86
2022/11/13 07:18:02;;;;;;;;;;;9.80;79.20;;;;;;5035927;28;19952;-86
2022/11/13 07:20:28;;;;;;;;;;;10.00;78.90;;;;;;5053812;28;20036;-86
2022/11/13 07:22:57;;;;;;;;;;;10.20;78.20;;;;;;5053738;28;19983;-86
2022/11/13 07:25:23;;;;;;;;;;;10.30;77.90;;;;;;5053731;28;19941;-86
2022/11/13 07:27:49;;;;;;;;;;;10.40;77.30;;;;;;5053659;28;20018;-86
2022/11/13 07:30:14;;;;;;;;;;;10.50;77.60;;;;;;5053873;28;19954;-86
2022/11/13 07:32:40;;;;;;;;;;;10.60;77.60;;;;;;5053513;28;20513;-86
2022/11/13 07:35:06;;;;;;;;;;;10.70;77.10;;;;;;5053526;28;19953;-86
2022/11/13 07:37:31;;;;;;;;;;;10.80;76.80;;;;;;5053490;28;19945;-86
2022/11/13 07:39:57;;;;;;;;;;;11.00;76.60;;;;;;5053753;28;19944;-86
2022/11/13 07:42:22;;;;;;;;;;;11.10;76.40;;;;;;5053463;28;19940;-86
2022/11/13 07:44:48;;;;;;;;;;;11.10;75.90;;;;;;5053395;28;19940;-86
2022/11/13 07:47:13;;;;;;;;;;;11.30;75.30;;;;;;5053302;28;19951;-86
2022/11/13 07:49:39;;;;;;;;;;;11.40;75.30;;;;;;5035462;28;20034;-86
2022/11/13 07:52:04;;;;;;;;;;;11.50;74.40;;;;;;5060429;22;20399;-86
2022/11/13 07:54:30;;;;;;;;;;;11.50;74.40;;;;;;5053126;28;20013;-86
2022/11/13 07:56:55;;;;;;;;;;;11.60;74.80;;;;;;5035362;28;20058;-86
2022/11/13 07:59:21;;;;;;;;;;;11.70;74.50;;;;;;5053103;28;19971;-86
2022/11/13 08:01:47;;;;;;;;;;;11.80;73.60;;;;;;5053132;28;19944;-86
2022/11/13 08:04:12;;;;;;;;;;;11.90;73.80;;;;;;5053091;28;20399;-86
2022/11/13 08:06:38;;;;;;;;;;;11.90;72.50;;;;;;5053114;28;19941;-86
2022/11/13 08:09:03;;;;;;;;;;;12.00;73.00;;;;;;5051703;28;19950;-86
2022/11/13 08:11:29;;;;;;;;;;;12.00;73.10;;;;;;5053032;28;19970;-86
2022/11/13 08:13:54;;;;;;;;;;;12.10;72.90;;;;;;5052890;28;19960;-86
2022/11/13 08:16:22;;;;;;;;;;;12.10;72.80;;;;;;5052467;28;19941;-86
2022/11/13 08:18:48;;;;;;;;;;;12.10;73.20;;;;;;5052938;28;20030;-87
2022/11/13 08:21:13;;;;;;;;;;;12.30;72.60;;;;;;5052927;28;19942;-86
2022/11/13 08:23:40;;;;;;;;;;;12.30;72.10;;;;;;5052920;28;20474;-86
2022/11/13 08:26:06;;;;;;;;;;;12.40;71.90;;;;;;5052880;28;19974;-86
2022/11/13 08:28:31;;;;;;;;;;;12.40;71.60;;;;;;5052895;28;19980;-86
2022/11/13 08:30:57;;;;;;;;;;;12.60;71.30;;;;;;5052841;28;20029;-87
2022/11/13 08:33:22;;;;;;;;;;;12.60;71.20;;;;;;5052751;28;19962;-86
2022/11/13 08:35:55;;;;;;;;;;;12.70;71.00;;;;;;5052812;28;19961;-86
2022/11/13 08:38:21;;;;;;;;;;;12.80;70.40;;;;;;5052769;28;19939;-86
2022/11/13 08:40:47;;;;;;;;;;;12.90;70.70;;;;;;5052772;28;19940;-86
2022/11/13 08:43:12;;;;;;;;;;;12.90;70.00;;;;;;5052737;28;19943;-87
2022/11/13 08:45:38;;;;;;;;;;;13.00;69.50;;;;;;5052705;28;19942;-86
2022/11/13 08:48:03;;;;;;;;;;;13.00;69.20;;;;;;5052683;28;19945;-86
2022/11/13 08:50:30;;;;;;;;;;;13.10;68.60;;;;;;5052490;28;19976;-86
2022/11/13 08:52:56;;;;;;;;;;;13.10;67.40;;;;;;5034546;28;19962;-87
2022/11/13 08:55:21;;;;;;;;;;;13.20;67.60;;;;;;5052583;28;19949;-86
2022/11/13 08:57:47;;;;;;;;;;;13.20;67.60;;;;;;5052515;28;19942;-86
2022/11/13 09:00:13;;;;;;;;;;;13.20;67.20;;;;;;5052532;28;19962;-87
2022/11/13 09:02:38;;;;;;;;;;;13.30;66.80;;;;;;5052490;28;19960;-87
2022/11/13 09:05:04;;;;;;;;;;;13.30;66.90;;;;;;5052442;28;19958;-87
2022/11/13 09:07:30;;;;;;;;;;;13.40;65.90;;;;;;5052488;28;19963;-87
2022/11/13 09:09:55;;;;;;;;;;;13.40;66.00;;;;;;5052044;28;19969;-86
2022/11/13 09:12:21;;;;;;;;;;;13.40;67.30;;;;;;5052261;28;19945;-86
2022/11/13 09:14:46;;;;;;;;;;;13.40;66.70;;;;;;5052222;28;20008;-85
2022/11/13 09:17:12;;;;;;;;;;;13.50;65.40;;;;;;5052305;28;20359;-86
2022/11/13 09:19:37;;;;;;;;;;;13.50;66.10;;;;;;5052414;28;19947;-86
2022/11/13 09:22:03;;;;;;;;;;;13.60;66.50;;;;;;5052066;28;20030;-86
2022/11/13 09:24:28;;;;;;;;;;;13.70;66.20;;;;;;5052376;28;20038;-86
2022/11/13 09:26:54;;;;;;;;;;;13.70;66.10;;;;;;5052366;28;19938;-86
2022/11/13 09:29:22;;;;;;;;;;;13.80;66.30;;;;;;5054679;28;19941;-86
2022/11/13 09:31:48;;;;;;;;;;;13.90;64.70;;;;;;5055826;28;19983;-86
2022/11/13 09:34:13;;;;;;;;;;;13.90;64.30;;;;;;5056000;28;19995;-86
2022/11/13 09:36:39;;;;;;;;;;;14.00;65.30;;;;;;5055827;28;19981;-86
2022/11/13 09:39:04;;;;;;;;;;;14.10;64.40;;;;;;5055761;28;20362;-86
2022/11/13 09:41:41;;;;;;;;;;;14.10;64.60;;;;;;5055709;28;19942;-86
2022/11/13 09:44:15;;;;;;;;;;;14.20;65.10;;;;;;5055689;28;19942;-86
2022/11/13 09:46:46;;;;;;;;;;;14.20;64.20;;;;;;5055673;28;20076;-86
2022/11/13 09:49:14;;;;;;;;;;;14.30;63.60;;;;;;5055561;28;20468;-86
2022/11/13 09:51:41;;;;;;;;;;;14.30;62.60;;;;;;5055110;28;20412;-86
2022/11/13 09:54:11;;;;;;;;;;;14.40;63.40;;;;;;5037844;28;20013;-86
2022/11/13 09:56:43;;;;;;;;;;;14.40;63.40;;;;;;5055438;28;19948;-86
2022/11/13 09:59:12;;;;;;;;;;;14.50;63.10;;;;;;5055358;28;19944;-86
2022/11/13 10:01:48;;;;;;;;;;;14.60;64.40;;;;;;5055559;28;19947;-86
2022/11/13 10:04:15;;;;;;;;;;;14.70;62.70;;;;;;5055303;28;19946;-86
2022/11/13 10:06:44;;;;;;;;;;;14.80;63.30;;;;;;5055242;28;19946;-86
2022/11/13 10:09:10;;;;;;;;;;;14.90;62.30;;;;;;5055424;28;20039;-86
2022/11/13 10:11:38;;;;;;;;;;;15.00;62.20;;;;;;5055078;28;19979;-86
2022/11/13 10:14:08;;;;;;;;;;;15.10;62.50;;;;;;5054981;28;20051;-86
2022/11/13 10:16:42;;;;;;;;;;;15.10;62.30;;;;;;5055052;28;19942;-86
2022/11/13 10:19:13;;;;;;;;;;;15.20;63.10;;;;;;5054980;28;20311;-86
2022/11/13 10:21:42;;;;;;;;;;;15.30;62.50;;;;;;5054968;28;19954;-86
2022/11/13 10:24:27;;;;;;;;;;;15.30;60.10;;;;;;5054945;28;19943;-86
2022/11/13 10:26:57;;;;;;;;;;;15.30;60.00;;;;;;5054859;28;20446;-86
2022/11/13 10:29:25;;;;;;;;;;;15.30;59.80;;;;;;5036874;28;19948;-86
2022/11/13 10:31:51;;;;;;;;;;;15.30;59.70;;;;;;5054761;28;20369;-86
2022/11/13 10:34:17;;;;;;;;;;;15.30;61.20;;;;;;5054647;28;19961;-86
2022/11/13 10:36:45;;;;;;;;;;;15.40;60.10;;;;;;5054647;28;19937;-86
2022/11/13 10:39:11;;;;;;;;;;;15.60;61.20;;;;;;5054173;28;19984;-86
2022/11/13 10:41:47;;;;;;;;;;;15.70;60.40;;;;;;5054565;28;19948;-86
2022/11/13 10:44:25;;;;;;;;;;;15.80;59.60;;;;;;5036606;28;19942;-86
2022/11/13 10:47:02;;;;;;;;;;;15.80;58.30;;;;;;5054449;28;20328;-86
2022/11/13 10:49:28;;;;;;;;;;;15.80;59.60;;;;;;5054970;28;19950;-86
2022/11/13 10:51:57;;;;;;;;;;;15.90;58.80;;;;;;5054237;28;19975;-86
2022/11/13 10:54:23;;;;;;;;;;;16.00;58.30;;;;;;5054482;28;19964;-86
2022/11/13 10:56:58;;;;;;;;;;;16.10;59.00;;;;;;5054128;28;19961;-86
2022/11/13 10:59:25;;;;;;;;;;;16.20;58.90;;;;;;5054198;28;20026;-86
2022/11/13 11:01:50;;;;;;;;;;;16.30;57.90;;;;;;5036285;28;19975;-86
2022/11/13 11:04:28;;;;;;;;;;;16.60;58.10;;;;;;5054134;28;19943;-86
2022/11/13 11:06:55;;;;;;;;;;;16.70;58.10;;;;;;5054028;28;19940;-86
2022/11/13 11:09:30;;;;;;;;;;;16.90;57.80;;;;;;5054015;28;19943;-86
2022/11/13 11:12:16;;;;;;;;;;;17.10;55.50;;;;;;5053985;28;19993;-86
2022/11/13 11:14:45;;;;;;;;;;;17.20;55.40;;;;;;5054095;28;19968;-86
2022/11/13 11:17:12;;;;;;;;;;;17.30;53.90;;;;;;5053838;28;20035;-86
2022/11/13 11:19:39;;;;;;;;;;;17.40;55.70;;;;;;5053887;28;19941;-86
2022/11/13 11:22:13;;;;;;;;;;;17.70;55.60;;;;;;5053822;28;20392;-86
2022/11/13 11:24:42;;;;;;;;;;;17.90;55.20;;;;;;5053757;28;19940;-86
2022/11/13 11:27:10;;;;;;;;;;;18.10;53.50;;;;;;5053699;28;20283;-86
2022/11/13 11:29:42;;;;;;;;;;;18.30;52.90;;;;;;5053658;28;20347;-86
2022/11/13 11:32:14;;;;;;;;;;;18.50;52.50;;;;;;5053622;28;19972;-86
2022/11/13 11:34:45;;;;;;;;;;;18.70;51.30;;;;;;5053508;28;20011;-86
2022/11/13 11:37:12;;;;;;;;;;;18.80;50.40;;;;;;5053551;28;19947;-86
2022/11/13 11:39:54;;;;;;;;;;;19.00;50.90;;;;;;5053495;28;20346;-86
2022/11/13 11:42:31;;;;;;;;;;;19.50;48.80;;;;;;5053468;28;19945;-86
2022/11/13 11:45:15;;;;;;;;;;;20.30;46.30;;;;;;5053392;28;19947;-86
2022/11/13 11:47:41;;;;;;;;;;;21.10;45.50;;;;;;5052077;28;19947;-86
2022/11/13 11:50:14;;;;;;;;;;;21.90;43.70;;;;;;5053056;28;20306;-87
2022/11/13 11:52:58;;;;;;;;;;;22.30;42.40;;;;;;5052849;28;19963;-87
2022/11/13 11:55:27;;;;;;;;;;;22.90;40.60;;;;;;5053253;28;19950;-86
2022/11/13 11:58:11;;;;;;;;;;;23.80;38.60;;;;;;5053246;28;20410;-86
2022/11/13 12:00:39;;;;;;;;;;;24.40;37.80;;;;;;5053201;28;19940;-86
2022/11/13 12:03:13;;;;;;;;;;;24.60;36.90;;;;;;5052895;28;19975;-86
2022/11/13 12:05:55;;;;;;;;;;;24.50;37.80;;;;;;5048099;28;19939;-87
2022/11/13 12:08:43;;;;;;;;;;;24.60;37.30;;;;;;5067601;28;20072;-86
2022/11/13 12:11:21;;;;;;;;;;;24.50;38.00;;;;;;5043970;28;19944;-86
2022/11/13 12:13:47;;;;;;;;;;;23.20;38.50;;;;;;5050624;28;19962;-86
2022/11/13 12:16:20;;;;;;;;;;;22.60;39.40;;;;;;5052338;28;20321;-86
2022/11/13 12:18:54;;;;;;;;;;;22.50;40.40;;;;;;5053029;28;19940;-86
2022/11/13 12:21:21;;;;;;;;;;;22.20;40.50;;;;;;5052995;28;20413;-86
2022/11/13 12:23:55;;;;;;;;;;;22.30;41.40;;;;;;5052887;28;19949;-86
2022/11/13 12:26:21;;;;;;;;;;;22.80;40.20;;;;;;5053233;28;19936;-86
2022/11/13 12:28:46;;;;;;;;;;;23.20;39.60;;;;;;5052908;28;19942;-86
2022/11/13 12:31:17;;;;;;;;;;;23.30;39.60;;;;;;5052933;28;20400;-86
2022/11/13 12:33:50;;;;;;;;;;;23.80;39.00;;;;;;5052728;28;19981;-86
2022/11/13 12:36:16;;;;;;;;;;;24.20;38.40;;;;;;5052318;28;19953;-86
2022/11/13 12:38:47;;;;;;;;;;;25.00;36.70;;;;;;5052814;28;19974;-86
2022/11/13 12:41:12;;;;;;;;;;;25.20;36.50;;;;;;5052759;28;19949;-86
2022/11/13 12:43:38;;;;;;;;;;;24.90;36.50;;;;;;5052703;28;19944;-86
2022/11/13 12:46:07;;;;;;;;;;;23.90;37.60;;;;;;5052745;28;20350;-86
2022/11/13 12:48:51;;;;;;;;;;;23.60;38.40;;;;;;5052661;28;19950;-86
2022/11/13 12:51:17;;;;;;;;;;;23.10;39.40;;;;;;5052395;28;19976;-86
2022/11/13 12:53:43;;;;;;;;;;;22.80;40.10;;;;;;5052764;28;20310;-86
2022/11/13 12:56:27;;;;;;;;;;;22.80;40.20;;;;;;5052274;28;19974;-86
2022/11/13 12:58:58;;;;;;;;;;;22.80;39.80;;;;;;5052489;28;19948;-86
2022/11/13 13:01:26;;;;;;;;;;;22.40;40.20;;;;;;5051954;28;19952;-86
2022/11/13 13:03:57;;;;;;;;;;;22.00;41.10;;;;;;5056048;28;20048;-86
2022/11/13 13:06:30;;;;;;;;;;;21.80;42.40;;;;;;5056322;28;19941;-86
2022/11/13 13:09:01;;;;;;;;;;;22.00;42.70;;;;;;5056383;28;19967;-86
2022/11/13 13:11:45;;;;;;;;;;;22.80;40.30;;;;;;5056265;28;19940;-87
2022/11/13 13:14:29;;;;;;;;;;;23.60;38.80;;;;;;5056159;28;19962;-86
2022/11/13 13:17:12;;;;;;;;;;;23.50;39.10;;;;;;5056178;28;19939;-86
2022/11/13 13:19:38;;;;;;;;;;;23.20;39.40;;;;;;5056139;28;19995;-86
2022/11/13 13:22:08;;;;;;;;;;;22.70;40.30;;;;;;5056059;28;20048;-86
2022/11/13 13:24:35;;;;;;;;;;;22.30;41.30;;;;;;5055956;28;19944;-86
2022/11/13 13:27:01;;;;;;;;;;;21.70;41.80;;;;;;5056249;28;19946;-86
2022/11/13 13:29:27;;;;;;;;;;;21.10;42.70;;;;;;5055987;28;19986;-86
2022/11/13 13:32:00;;;;;;;;;;;20.30;44.70;;;;;;5055858;28;19948;-86
2022/11/13 13:34:44;;;;;;;;;;;19.90;46.60;;;;;;5055827;28;20051;-86
2022/11/13 13:37:15;;;;;;;;;;;19.70;46.90;;;;;;5055817;28;19944;-86
2022/11/13 13:39:53;;;;;;;;;;;19.50;48.00;;;;;;5055725;28;20041;-86
2022/11/13 13:42:37;;;;;;;;;;;19.30;48.60;;;;;;5055692;28;19936;-86
2022/11/13 13:45:21;;;;;;;;;;;18.80;48.90;;;;;;5037718;28;20000;-86
2022/11/13 13:47:48;;;;;;;;;;;18.40;50.50;;;;;;5055860;28;19944;-86
2022/11/13 13:50:15;;;;;;;;;;;18.20;51.30;;;;;;5055325;28;19979;-86
2022/11/13 13:52:42;;;;;;;;;;;18.10;52.50;;;;;;5055318;28;19956;-86
2022/11/13 13:55:14;;;;;;;;;;;18.20;52.10;;;;;;5055480;28;19945;-86
2022/11/13 13:57:41;;;;;;;;;;;18.60;51.80;;;;;;5055421;28;19941;-86
2022/11/13 14:00:13;;;;;;;;;;;18.90;51.80;;;;;;5055350;28;19948;-86
2022/11/13 14:02:45;;;;;;;;;;;19.30;50.60;;;;;;5055329;28;20407;-86
2022/11/13 14:05:25;;;;;;;;;;;20.40;48.90;;;;;;5055602;28;19942;-86
2022/11/13 14:07:50;;;;;;;;;;;21.00;46.40;;;;;;5037402;28;19943;-86
2022/11/13 14:10:17;;;;;;;;;;;22.20;44.80;;;;;;5055466;28;19939;-86
2022/11/13 14:12:43;;;;;;;;;;;22.70;42.80;;;;;;5055104;28;19948;-86
2022/11/13 14:15:15;;;;;;;;;;;23.10;41.70;;;;;;5054306;28;19969;-86
2022/11/13 14:17:41;;;;;;;;;;;23.10;42.20;;;;;;5055052;28;19937;-86
2022/11/13 14:20:10;;;;;;;;;;;23.70;40.40;;;;;;5054986;28;20430;-86
2022/11/13 14:22:36;;;;;;;;;;;23.80;40.40;;;;;;5054909;28;19975;-86
2022/11/13 14:25:01;;;;;;;;;;;23.30;41.10;;;;;;5054966;28;19968;-87
2022/11/13 14:27:27;;;;;;;;;;;22.50;42.40;;;;;;5054906;28;20453;-86